Time;durP1;ratioP1;P1;durP2;ratioP2;P2;SDS_P1;SDS_P2;PMS_P1;PMS_P2;Temp;Humidity;BMP_temperature;BMP_pressure;BME280_temperature;BME280_humidity;BME280_pressure;Samples;Min_cycle;Max_cycle;Signal;HPM_P1;HPM_P2
2022/05/25 00:00:32;;;;;;;13.63;11.43;;;;;;;-145.45;100.00;62759.84;5319936;27;20469;-84
2022/05/25 00:03:05;;;;;;;14.60;11.55;;;;;;;-145.45;100.00;62759.84;5299126;27;20765;-84
2022/05/25 00:05:36;;;;;;;13.02;11.00;;;;;;;-145.45;100.00;62759.84;5300709;27;20031;-84
2022/05/25 00:08:13;;;;;;;13.55;12.10;;;;;;;-145.45;100.00;62759.84;5317490;27;20401;-84
2022/05/25 00:10:44;;;;;;;13.52;12.13;;;;;;;-145.45;100.00;62759.84;5319890;27;20098;-84
2022/05/25 00:13:16;;;;;;;14.60;11.63;;;;;;;-145.45;100.00;62759.84;5321447;27;20031;-84
2022/05/25 00:15:47;;;;;;;15.45;13.45;;;;;;;-145.45;100.00;62759.84;5296027;27;20115;-84
2022/05/25 00:18:19;;;;;;;16.88;13.32;;;;;;;-145.45;100.00;62759.84;5317307;27;20429;-84
2022/05/25 00:20:50;;;;;;;21.15;13.93;;;;;;;-145.45;100.00;62759.84;5319423;27;20052;-84
2022/05/25 00:23:21;;;;;;;17.58;13.80;;;;;;;-145.45;100.00;62759.84;5319379;27;20106;-84
2022/05/25 00:25:53;;;;;;;15.60;14.00;;;;;;;-145.45;100.00;62759.84;5297923;27;20116;-84
2022/05/25 00:28:25;;;;;;;17.50;13.82;;;;;;;-145.45;100.00;62759.84;5315658;27;20449;-84
2022/05/25 00:30:57;;;;;;;18.40;14.80;;;;;;;-145.45;100.00;62759.84;5313424;27;20036;-84
2022/05/25 00:33:29;;;;;;;18.25;14.82;;;;;;;-145.45;100.00;62759.84;5300754;28;20489;-84
2022/05/25 00:36:01;;;;;;;21.10;17.55;;;;;;;-145.45;100.00;62759.84;5320535;27;20070;-84
2022/05/25 00:38:32;;;;;;;17.58;15.80;;;;;;;-145.45;100.00;62759.84;5297893;27;20047;-84
2022/05/25 00:41:03;;;;;;;18.10;16.15;;;;;;;-145.45;100.00;62759.84;5316654;27;20039;-84
2022/05/25 00:43:35;;;;;;;18.13;15.20;;;;;;;-145.45;100.00;62759.84;5317447;27;20120;-84
2022/05/25 00:46:10;;;;;;;21.90;16.83;;;;;;;-145.45;100.00;62759.84;5316391;27;20020;-84
2022/05/25 00:48:46;;;;;;;21.30;17.80;;;;;;;-145.45;100.00;62759.84;5318581;27;20093;-84
2022/05/25 00:51:36;;;;;;;20.65;16.95;;;;;;;-145.45;100.00;62759.84;5316938;27;20052;-84
2022/05/25 00:54:21;;;;;;;21.33;18.25;;;;;;;-145.45;100.00;62759.84;5316921;27;20025;-84
2022/05/25 00:56:55;;;;;;;25.38;18.85;;;;;;;-145.45;100.00;62759.84;5298314;28;20059;-84
2022/05/25 00:59:32;;;;;;;20.30;17.20;;;;;;;-145.45;100.00;62759.84;5315055;27;20408;-84
2022/05/25 01:02:04;;;;;;;21.05;18.23;;;;;;;-145.45;100.00;62759.84;5294314;27;20024;-84
2022/05/25 01:04:35;;;;;;;22.23;18.25;;;;;;;-145.45;100.00;62759.84;5319258;27;20032;-84
2022/05/25 01:07:33;;;;;;;19.30;17.27;;;;;;;-145.45;100.00;62759.84;5299783;27;20840;-84
2022/05/25 01:10:19;;;;;;;21.63;18.75;;;;;;;-145.45;100.00;62759.84;5316215;27;20503;-84
2022/05/25 01:13:15;;;;;;;21.60;18.70;;;;;;;-145.45;100.00;62759.84;5313675;27;20059;-84
2022/05/25 01:16:16;;;;;;;21.02;18.92;;;;;;;-145.45;100.00;62759.84;5313790;27;20404;-84
2022/05/25 01:19:22;;;;;;;22.15;19.50;;;;;;;-145.45;100.00;62759.84;5314624;27;20063;-84
2022/05/25 01:22:13;;;;;;;23.00;19.77;;;;;;;-145.45;100.00;62759.84;5316351;27;20075;-84
2022/05/25 01:25:06;;;;;;;25.60;19.80;;;;;;;-145.45;100.00;62759.84;5311962;27;20119;-84
2022/05/25 01:27:43;;;;;;;23.88;21.25;;;;;;;-145.45;100.00;62759.84;5314238;27;20111;-84
2022/05/25 01:30:16;;;;;;;;;;;;;;;-145.45;100.00;62759.84;5317219;27;20119;-84
2022/05/25 01:33:19;;;;;;;24.92;20.02;;;;;;;-145.45;100.00;62759.84;5319888;27;20376;-84
2022/05/25 01:36:00;;;;;;;24.63;20.38;;;;;;;-145.45;100.00;62759.84;5295104;27;20435;-84
2022/05/25 01:38:52;;;;;;;25.77;21.65;;;;;;;-145.45;100.00;62759.84;5292538;27;20047;-84
2022/05/25 01:41:34;;;;;;;24.13;21.55;;;;;;;-145.45;100.00;62759.84;5293242;27;20035;-84
2022/05/25 01:44:17;;;;;;;24.73;20.65;;;;;;;-145.45;100.00;62759.84;5309306;27;20027;-84
2022/05/25 01:46:53;;;;;;;24.83;21.13;;;;;;;-145.45;100.00;62759.84;5296655;28;20039;-84
2022/05/25 01:49:33;;;;;;;27.13;22.33;;;;;;;-145.45;100.00;62759.84;5314585;27;20028;-84
2022/05/25 01:52:09;;;;;;;24.00;19.80;;;;;;;-145.45;100.00;62759.84;5315656;27;20733;-84
2022/05/25 01:54:48;;;;;;;22.25;19.85;;;;;;;-145.45;100.00;62759.84;5295406;27;20025;-83
2022/05/25 01:57:24;;;;;;;27.48;21.17;;;;;;;-145.45;100.00;62759.84;5315865;27;20373;-84
2022/05/25 01:59:55;;;;;;;25.67;21.75;;;;;;;-145.45;100.00;62759.84;5312770;27;20024;-84
2022/05/25 02:05:19;;;;;;;27.95;22.83;;;;;;;-145.45;100.00;62759.84;5313468;27;20048;-84
2022/05/25 02:08:18;;;;;;;27.13;21.42;;;;;;;-145.45;100.00;62759.84;5297350;27;20036;-84
2022/05/25 02:11:01;;;;;;;26.75;21.38;;;;;;;-145.45;100.00;62759.84;5314913;27;20052;-84
2022/05/25 02:14:05;;;;;;;26.55;21.35;;;;;;;-145.45;100.00;62759.84;5296967;27;20558;-84
2022/05/25 02:16:58;;;;;;;29.23;22.40;;;;;;;-145.45;100.00;62759.84;5263690;27;20075;-84
2022/05/25 02:19:55;;;;;;;25.67;22.98;;;;;;;-145.45;100.00;62759.84;5315344;27;20025;-84
2022/05/25 02:22:36;;;;;;;24.90;22.23;;;;;;;-145.45;100.00;62759.84;5315579;27;20051;-83
2022/05/25 02:25:45;;;;;;;28.20;22.08;;;;;;;-145.45;100.00;62759.84;5313970;27;20865;-82
2022/05/25 02:28:23;;;;;;;25.45;22.08;;;;;;;-145.45;100.00;62759.84;5294025;27;20037;-82
2022/05/25 02:30:58;;;;;;;26.88;20.48;;;;;;;-145.45;100.00;62759.84;5315683;27;20107;-83
2022/05/25 02:33:42;;;;;;;22.40;19.00;;;;;;;-145.45;100.00;62759.84;5317357;27;20035;-83
2022/05/25 02:36:14;;;;;;;25.55;20.48;;;;;;;-145.45;100.00;62759.84;5321623;27;20384;-83
2022/05/25 02:38:46;;;;;;;25.58;20.77;;;;;;;-145.45;100.00;62759.84;5320372;27;20066;-84
2022/05/25 02:41:35;;;;;;;26.25;20.58;;;;;;;-145.45;100.00;62759.84;5316392;27;20443;-83
2022/05/25 02:44:06;;;;;;;22.35;19.15;;;;;;;-145.45;100.00;62759.84;5316487;27;20105;-83
2022/05/25 02:46:38;;;;;;;23.58;20.48;;;;;;;-145.45;100.00;62759.84;5300794;27;20017;-83
2022/05/25 02:49:10;;;;;;;22.67;20.25;;;;;;;-145.45;100.00;62759.84;5317802;27;20042;-83
2022/05/25 02:51:41;;;;;;;22.88;18.70;;;;;;;-145.45;100.00;62759.84;5319941;27;20028;-84
2022/05/25 02:54:13;;;;;;;26.88;19.65;;;;;;;-145.45;100.00;62759.84;5317689;27;20036;-84
2022/05/25 02:56:44;;;;;;;24.23;18.98;;;;;;;-145.45;100.00;62759.84;5316773;27;20040;-83
2022/05/25 02:59:16;;;;;;;21.42;19.13;;;;;;;-145.45;100.00;62759.84;5303583;27;20034;-83
2022/05/25 03:01:48;;;;;;;21.77;16.88;;;;;;;-145.45;100.00;62759.84;5316914;27;20085;-83
2022/05/25 03:04:19;;;;;;;20.27;17.50;;;;;;;-145.45;100.00;62759.84;5316721;27;20464;-83
2022/05/25 03:06:51;;;;;;;20.67;16.65;;;;;;;-145.45;100.00;62759.84;5314830;27;20054;-83
2022/05/25 03:09:45;;;;;;;20.48;16.33;;;;;;;-145.45;100.00;62759.84;5314822;27;20035;-83
2022/05/25 03:12:31;;;;;;;18.30;15.77;;;;;;;-145.45;100.00;62759.84;5332506;27;20044;-84
2022/05/25 03:15:03;;;;;;;20.30;16.55;;;;;;;-145.45;100.00;62759.84;5332634;27;20032;-83
2022/05/25 03:17:34;;;;;;;21.58;16.58;;;;;;;-145.45;100.00;62759.84;5337605;27;20434;-84
2022/05/25 03:20:06;;;;;;;20.42;15.73;;;;;;;-145.45;100.00;62759.84;5337343;27;20028;-83
2022/05/25 03:22:40;;;;;;;18.17;15.52;;;;;;;-145.45;100.00;62759.84;5337783;27;20028;-84
2022/05/25 03:25:12;;;;;;;18.52;14.63;;;;;;;-145.45;100.00;62759.84;5344517;27;20678;-84
2022/05/25 03:27:44;;;;;;;20.90;16.38;;;;;;;-145.45;100.00;62759.84;5358227;27;20392;-84
2022/05/25 03:30:17;;;;;;;18.67;15.85;;;;;;;-145.45;100.00;62759.84;5341214;27;21413;-83
2022/05/25 03:32:49;;;;;;;20.52;16.35;;;;;;;-145.45;100.00;62759.84;5340964;27;20035;-83
2022/05/25 03:35:20;;;;;;;22.88;16.45;;;;;;;-145.45;100.00;62759.84;5322801;27;20041;-83
2022/05/25 03:37:51;;;;;;;18.77;16.55;;;;;;;-145.45;100.00;62759.84;5344698;27;20046;-83
2022/05/25 03:40:23;;;;;;;19.85;16.05;;;;;;;-145.45;100.00;62759.84;5342306;27;20577;-84
2022/05/25 03:42:54;;;;;;;22.02;16.40;;;;;;;-145.45;100.00;62759.84;5340143;27;20038;-84
2022/05/25 03:45:25;;;;;;;19.38;16.50;;;;;;;-145.45;100.00;62759.84;5339003;27;20811;-83
2022/05/25 03:47:57;;;;;;;22.95;16.73;;;;;;;-145.45;100.00;62759.84;5343116;27;20383;-84
2022/05/25 03:50:29;;;;;;;21.05;16.10;;;;;;;-145.45;100.00;62759.84;5343403;27;20131;-84
2022/05/25 03:53:00;;;;;;;18.92;15.07;;;;;;;-145.45;100.00;62759.84;5342355;27;20030;-83
2022/05/25 03:55:33;;;;;;;22.35;16.30;;;;;;;-145.45;100.00;62759.84;5337911;27;20024;-83
2022/05/25 03:58:05;;;;;;;19.50;16.50;;;;;;;-145.45;100.00;62759.84;5340413;27;20046;-83
2022/05/25 04:00:37;;;;;;;19.17;14.50;;;;;;;-145.45;100.00;62759.84;5342864;27;20594;-84
2022/05/25 04:03:12;;;;;;;23.60;16.95;;;;;;;-145.45;100.00;62759.84;5339426;27;20428;-84
2022/05/25 04:05:44;;;;;;;17.15;15.38;;;;;;;-145.45;100.00;62759.84;5347064;27;20054;-83
2022/05/25 04:08:15;;;;;;;22.58;16.80;;;;;;;-145.45;100.00;62759.84;5349666;27;20142;-82
2022/05/25 04:10:46;;;;;;;21.23;16.63;;;;;;;-145.45;100.00;62759.84;5339813;27;20163;-83
2022/05/25 04:13:19;;;;;;;20.65;15.98;;;;;;;-145.45;100.00;62759.84;5328894;27;20081;-83
2022/05/25 04:15:51;;;;;;;24.80;16.00;;;;;;;-145.45;100.00;62759.84;5323804;27;20056;-83
2022/05/25 04:18:22;;;;;;;17.85;15.13;;;;;;;-145.45;100.00;62759.84;5323471;27;20035;-83
2022/05/25 04:20:54;;;;;;;22.52;15.52;;;;;;;-145.45;100.00;62759.84;5318090;27;20039;-83
2022/05/25 04:23:26;;;;;;;20.88;15.52;;;;;;;-145.45;100.00;62759.84;5319431;27;20132;-83
2022/05/25 04:25:58;;;;;;;19.42;15.48;;;;;;;-145.45;100.00;62759.84;5317384;27;20039;-83
2022/05/25 04:28:29;;;;;;;20.95;14.80;;;;;;;-145.45;100.00;62759.84;5299173;28;20026;-84
2022/05/25 04:31:01;;;;;;;21.42;14.05;;;;;;;-145.45;100.00;62759.84;5320924;27;20071;-83
2022/05/25 04:33:35;;;;;;;20.75;14.15;;;;;;;-145.45;100.00;62759.84;5325261;27;20114;-84
2022/05/25 04:36:06;;;;;;;17.05;15.18;;;;;;;-145.45;100.00;62759.84;5302298;27;20082;-83
2022/05/25 04:38:37;;;;;;;16.83;14.27;;;;;;;-145.45;100.00;62759.84;5294761;27;20044;-83
2022/05/25 04:41:09;;;;;;;17.52;13.98;;;;;;;-145.45;100.00;62759.84;5296237;27;20119;-83
2022/05/25 04:43:40;;;;;;;20.33;15.10;;;;;;;-145.45;100.00;62759.84;5311253;27;20056;-84
2022/05/25 04:46:12;;;;;;;16.92;13.55;;;;;;;-145.45;100.00;62759.84;5308763;27;20156;-84
2022/05/25 04:48:44;;;;;;;17.45;13.85;;;;;;;-145.45;100.00;62759.84;5322940;27;20036;-83
2022/05/25 04:51:16;;;;;;;17.63;13.95;;;;;;;-145.45;100.00;62759.84;5316291;27;20033;-83
2022/05/25 04:53:47;;;;;;;16.98;12.90;;;;;;;-145.45;100.00;62759.84;5311493;27;20035;-84
2022/05/25 04:59:08;;;;;;;22.52;12.52;;;;;;;-145.45;100.00;62759.84;5314038;27;20582;-83
2022/05/25 05:01:39;;;;;;;24.42;13.75;;;;;;;-145.45;100.00;62759.84;5319894;27;20043;-83
2022/05/25 05:04:11;;;;;;;19.25;12.50;;;;;;;-145.45;100.00;62759.84;5299883;27;20051;-84
2022/05/25 05:06:44;;;;;;;14.45;11.70;;;;;;;-145.45;100.00;62759.84;5315379;27;20035;-83
2022/05/25 05:09:16;;;;;;;19.23;11.05;;;;;;;-145.45;100.00;62759.84;5293088;28;20040;-83
2022/05/25 05:11:47;;;;;;;17.67;12.20;;;;;;;-145.45;100.00;62759.84;5314144;27;20048;-84
2022/05/25 05:14:18;;;;;;;21.15;11.82;;;;;;;-145.45;100.00;62759.84;5314093;27;20028;-84
2022/05/25 05:16:55;;;;;;;15.80;11.00;;;;;;;-145.45;100.00;62759.84;5312962;27;20032;-84
2022/05/25 05:19:27;;;;;;;21.02;10.10;;;;;;;-145.45;100.00;62759.84;5314254;27;20032;-84
2022/05/25 05:21:59;;;;;;;15.30;10.63;;;;;;;-145.45;100.00;62759.84;5317302;27;20028;-84
2022/05/25 05:24:32;;;;;;;16.80;10.27;;;;;;;-145.45;100.00;62759.84;5311661;27;20105;-84
2022/05/25 05:27:06;;;;;;;15.85;9.50;;;;;;;-145.45;100.00;62759.84;5319876;28;20120;-84
2022/05/25 05:29:37;;;;;;;16.98;10.32;;;;;;;-145.45;100.00;62759.84;5317702;27;20032;-84
2022/05/25 05:32:11;;;;;;;15.73;7.85;;;;;;;-145.45;100.00;62759.84;5297981;27;20032;-84
2022/05/25 05:34:43;;;;;;;13.75;9.48;;;;;;;-145.45;100.00;62759.84;5296076;28;20502;-84
2022/05/25 05:37:20;;;;;;;11.65;7.05;;;;;;;-145.45;100.00;62759.84;5318976;28;20058;-84
2022/05/25 05:40:01;;;;;;;8.77;6.50;;;;;;;-145.45;100.00;62759.84;5318835;28;20119;-84
2022/05/25 05:42:40;;;;;;;14.70;7.95;;;;;;;-145.45;100.00;62759.84;5315052;28;20054;-83
2022/05/25 05:45:16;;;;;;;13.93;6.32;;;;;;;-145.45;100.00;62759.84;5295864;28;20116;-84
2022/05/25 05:47:55;;;;;;;7.50;5.65;;;;;;;-145.45;100.00;62759.84;5316103;27;20337;-84
2022/05/25 05:50:30;;;;;;;7.90;5.70;;;;;;;-145.45;100.00;62759.84;5313050;28;20558;-84
2022/05/25 05:53:01;;;;;;;12.98;5.85;;;;;;;-145.45;100.00;62759.84;5308136;28;20842;-85
2022/05/25 05:55:34;;;;;;;11.70;6.50;;;;;;;-145.45;100.00;62759.84;5326281;28;20046;-84
2022/05/25 05:58:05;;;;;;;10.15;5.28;;;;;;;-145.45;100.00;62759.84;5311071;28;20116;-84
2022/05/25 06:00:38;;;;;;;9.82;5.80;;;;;;;-145.45;100.00;62759.84;5298915;28;20499;-84
2022/05/25 06:03:13;;;;;;;7.68;5.20;;;;;;;-145.45;100.00;62759.84;5328711;28;20031;-84
2022/05/25 06:05:45;;;;;;;8.90;5.45;;;;;;;-145.45;100.00;62759.84;5329307;28;20020;-84
2022/05/25 06:08:18;;;;;;;11.23;5.55;;;;;;;-145.45;100.00;62759.84;5333173;27;20024;-83
2022/05/25 06:10:50;;;;;;;11.95;5.78;;;;;;;-145.45;100.00;62759.84;5317221;27;20051;-84
2022/05/25 06:13:22;;;;;;;8.45;5.45;;;;;;;-145.45;100.00;62759.84;5341839;27;20471;-84
2022/05/25 06:21:33;;;;;;;10.98;6.30;;;;;;;-145.45;100.00;62759.84;5341473;27;20032;-84
2022/05/25 06:24:05;;;;;;;10.45;6.28;;;;;;;-145.45;100.00;62759.84;5342936;27;20375;-83
2022/05/25 06:26:39;;;;;;;6.95;5.03;;;;;;;-145.45;100.00;62759.84;5341376;27;20035;-84
2022/05/25 06:29:11;;;;;;;12.55;5.78;;;;;;;-145.45;100.00;62759.84;5339095;27;20467;-83
2022/05/25 06:31:42;;;;;;;13.98;5.72;;;;;;;-145.45;100.00;62759.84;5341353;27;20043;-84
2022/05/25 06:34:14;;;;;;;12.15;6.15;;;;;;;-145.45;100.00;62759.84;5345537;27;20488;-83
2022/05/25 06:36:48;;;;;;;11.93;6.25;;;;;;;-145.45;100.00;62759.84;5345550;27;20387;-84
2022/05/25 06:39:19;;;;;;;10.50;6.28;;;;;;;-145.45;100.00;62759.84;5345770;27;20148;-84
2022/05/25 06:41:50;;;;;;;11.98;6.85;;;;;;;-145.45;100.00;62759.84;5346879;27;20615;-83
2022/05/25 06:44:22;;;;;;;13.75;9.68;;;;;;;-145.45;100.00;62759.84;5344590;27;20019;-84
2022/05/25 06:46:53;;;;;;;13.25;10.35;;;;;;;-145.45;100.00;62759.84;5346225;27;20024;-83
2022/05/25 06:49:25;;;;;;;13.35;11.77;;;;;;;-145.45;100.00;62759.84;5346893;27;20192;-83
2022/05/25 06:51:56;;;;;;;13.30;11.07;;;;;;;-145.45;100.00;62759.84;5344596;27;20024;-83
2022/05/25 06:54:28;;;;;;;13.55;9.75;;;;;;;-145.45;100.00;62759.84;5345578;27;20077;-83
2022/05/25 06:56:59;;;;;;;13.85;9.75;;;;;;;-145.45;100.00;62759.84;5344655;27;20042;-84
2022/05/25 06:59:32;;;;;;;13.65;8.85;;;;;;;-145.45;100.00;62759.84;5345613;27;20059;-83
2022/05/25 07:02:03;;;;;;;20.17;8.77;;;;;;;-145.45;100.00;62759.84;5346549;27;20015;-83
2022/05/25 07:04:34;;;;;;;15.32;8.70;;;;;;;-145.45;100.00;62759.84;5343729;27;20035;-83
2022/05/25 07:07:06;;;;;;;11.20;8.32;;;;;;;-145.45;100.00;62759.84;5362710;27;20026;-84
2022/05/25 07:09:39;;;;;;;16.17;9.07;;;;;;;-145.45;100.00;62759.84;5346219;27;20080;-83
2022/05/25 07:12:11;;;;;;;10.93;7.97;;;;;;;-145.45;100.00;62759.84;5311602;27;20040;-83
2022/05/25 07:14:42;;;;;;;12.70;7.55;;;;;;;-145.45;100.00;62759.84;5303227;28;20023;-83
2022/05/25 07:17:13;;;;;;;11.00;7.88;;;;;;;-145.45;100.00;62759.84;5303840;28;20469;-83
2022/05/25 07:19:45;;;;;;;10.23;7.82;;;;;;;-145.45;100.00;62759.84;5303081;28;20435;-83
2022/05/25 07:22:16;;;;;;;10.52;8.10;;;;;;;-145.45;100.00;62759.84;5285030;28;20025;-85
2022/05/25 07:24:47;;;;;;;16.17;7.80;;;;;;;-145.45;100.00;62759.84;5313817;28;20116;-83
2022/05/25 07:27:19;;;;;;;12.25;7.78;;;;;;;-145.45;100.00;62759.84;5323780;28;20036;-83
2022/05/25 07:29:50;;;;;;;12.55;7.70;;;;;;;-145.45;100.00;62759.84;5324366;28;20085;-82
2022/05/25 07:32:22;;;;;;;10.90;7.25;;;;;;;-145.45;100.00;62759.84;5324395;28;20138;-83
2022/05/25 07:35:01;;;;;;;11.65;7.03;;;;;;;-145.45;100.00;62759.84;5324622;28;20017;-82
2022/05/25 07:37:37;;;;;;;9.15;7.22;;;;;;;-145.45;100.00;62759.84;5313643;28;20021;-83
2022/05/25 07:40:16;;;;;;;11.95;8.00;;;;;;;-145.45;100.00;62759.84;5284981;28;20218;-83
2022/05/25 07:42:51;;;;;;;11.50;6.88;;;;;;;-145.45;100.00;62759.84;5284261;28;20028;-82
2022/05/25 07:45:23;;;;;;;9.57;6.20;;;;;;;-145.45;100.00;62759.84;5309758;28;20036;-83
2022/05/25 07:47:55;;;;;;;11.93;5.68;;;;;;;-145.45;100.00;62759.84;5324092;28;20043;-83
2022/05/25 07:50:29;;;;;;;9.10;5.07;;;;;;;-145.45;100.00;62759.84;5325032;28;20048;-83
2022/05/25 07:53:55;;;;;;;6.95;4.88;;;;;;;-145.45;100.00;62759.84;5323988;28;20469;-83
2022/05/25 07:55:56;;;;;;;8.35;4.13;;;;;;;-145.45;100.00;62759.84;5324004;28;20063;-83
2022/05/25 07:58:27;;;;;;;7.15;4.30;;;;;;;-145.45;100.00;62759.84;5324533;28;20180;-84
2022/05/25 08:01:05;;;;;;;7.70;4.03;;;;;;;-145.45;100.00;62759.84;5279689;28;20032;-84
2022/05/25 08:06:30;;;;;;;6.78;4.03;;;;;;;-145.45;100.00;62759.84;5311161;28;20434;-83
2022/05/25 08:09:01;;;;;;;7.22;3.90;;;;;;;-145.45;100.00;62759.84;5304786;28;20143;-83
2022/05/25 08:11:34;;;;;;;9.13;4.15;;;;;;;-145.45;100.00;62759.84;5306674;28;20044;-83
2022/05/25 08:14:06;;;;;;;8.02;3.70;;;;;;;-145.45;100.00;62759.84;5305651;28;20380;-83
2022/05/25 08:16:37;;;;;;;5.15;3.08;;;;;;;-145.45;100.00;62759.84;5288064;28;20025;-83
2022/05/25 08:19:09;;;;;;;8.65;3.75;;;;;;;-145.45;100.00;62759.84;5306342;28;20055;-83
2022/05/25 08:21:40;;;;;;;6.43;2.90;;;;;;;-145.45;100.00;62759.84;5322380;28;20062;-83
2022/05/25 08:24:11;;;;;;;5.55;2.88;;;;;;;-145.45;100.00;62759.84;5312638;28;20115;-83
2022/05/25 08:26:43;;;;;;;5.20;2.70;;;;;;;-145.45;100.00;62759.84;5326485;28;20051;-83
2022/05/25 08:29:14;;;;;;;5.68;2.95;;;;;;;-145.45;100.00;62759.84;5308139;28;20017;-83
2022/05/25 08:31:45;;;;;;;4.88;2.83;;;;;;;-145.45;100.00;62759.84;5327268;28;20103;-83
2022/05/25 08:34:17;;;;;;;8.68;2.90;;;;;;;-145.45;100.00;62759.84;5305408;28;20104;-83
2022/05/25 08:36:48;;;;;;;6.10;2.50;;;;;;;-145.45;100.00;62759.84;5306259;28;20020;-83
2022/05/25 08:39:20;;;;;;;7.03;2.85;;;;;;;-145.45;100.00;62759.84;5305669;28;20127;-83
2022/05/25 08:41:55;;;;;;;5.25;2.88;;;;;;;-145.45;100.00;62759.84;5306115;28;20396;-84
2022/05/25 08:44:27;;;;;;;8.10;2.85;;;;;;;-145.45;100.00;62759.84;5286442;28;20032;-83
2022/05/25 08:47:01;;;;;;;5.53;2.63;;;;;;;-145.45;100.00;62759.84;5323922;28;20490;-83
2022/05/25 08:49:34;;;;;;;4.20;2.30;;;;;;;-145.45;100.00;62759.84;5308507;28;20024;-83
2022/05/25 08:52:20;;;;;;;5.47;2.60;;;;;;;-145.45;100.00;62759.84;5327862;28;20446;-83
2022/05/25 08:54:52;;;;;;;5.88;2.53;;;;;;;-145.45;100.00;62759.84;5326853;28;20103;-83
2022/05/25 08:57:27;;;;;;;5.13;2.30;;;;;;;-145.45;100.00;62759.84;5326929;28;20132;-84
2022/05/25 09:00:08;;;;;;;4.90;1.83;;;;;;;-145.45;100.00;62759.84;5307613;28;20056;-83
2022/05/25 09:03:06;;;;;;;7.32;1.85;;;;;;;-145.45;100.00;62759.84;5305632;28;20063;-83
2022/05/25 09:05:50;;;;;;;4.05;1.92;;;;;;;-145.45;100.00;62759.84;5305741;28;20507;-83
2022/05/25 09:08:39;;;;;;;4.82;1.70;;;;;;;-145.45;100.00;62759.84;5305567;28;20032;-83
2022/05/25 09:11:30;;;;;;;7.40;1.92;;;;;;;-145.45;100.00;62759.84;5307205;28;20052;-83
2022/05/25 09:14:11;;;;;;;5.00;1.80;;;;;;;-145.45;100.00;62759.84;5325781;28;20087;-83
2022/05/25 09:16:44;;;;;;;5.47;1.80;;;;;;;-145.45;100.00;62759.84;5311816;28;20039;-83
2022/05/25 09:19:19;;;;;;;5.60;1.70;;;;;;;-145.45;100.00;62759.84;5271699;28;20119;-83
2022/05/25 09:21:56;;;;;;;3.63;1.60;;;;;;;-145.45;100.00;62759.84;5307244;28;20120;-83
2022/05/25 09:24:28;;;;;;;;;;;;;;;-145.45;100.00;62759.84;5288999;28;20024;-82
2022/05/25 09:27:09;;;;;;;4.85;1.75;;;;;;;-145.45;100.00;62759.84;5307414;28;20381;-83
2022/05/25 09:29:44;;;;;;;5.40;1.33;;;;;;;-145.45;100.00;62759.84;5294675;28;20029;-82
2022/05/25 09:32:32;;;;;;;8.05;1.40;;;;;;;-145.45;100.00;62759.84;5311271;28;20031;-84
2022/05/25 09:35:23;;;;;;;4.57;1.40;;;;;;;-145.45;100.00;62759.84;5325992;28;20507;-84
2022/05/25 09:37:54;;;;;;;3.20;1.10;;;;;;;-145.45;100.00;62759.84;5326122;28;20032;-84
2022/05/25 09:40:40;;;;;;;5.70;0.98;;;;;;;-145.45;100.00;62759.84;5306619;28;20109;-83
2022/05/25 09:43:17;;;;;;;4.20;1.20;;;;;;;-145.45;100.00;62759.84;5326367;28;20024;-84
2022/05/25 09:45:51;;;;;;;3.00;0.75;;;;;;;-145.45;100.00;62759.84;5329356;28;20025;-84
2022/05/25 09:48:29;;;;;;;6.43;1.00;;;;;;;-145.45;100.00;62759.84;5326448;28;20029;-84
2022/05/25 09:51:14;;;;;;;7.00;1.30;;;;;;;-145.45;100.00;62759.84;5326506;28;20107;-84
2022/05/25 09:54:03;;;;;;;6.43;1.13;;;;;;;-145.45;100.00;62759.84;5307579;28;20106;-84
2022/05/25 09:57:09;;;;;;;1.60;0.80;;;;;;;-145.45;100.00;62759.84;5326170;28;20818;-84
2022/05/25 09:59:47;;;;;;;3.50;0.80;;;;;;;-145.45;100.00;62759.84;5288030;28;20071;-84
2022/05/25 10:02:27;;;;;;;4.38;1.13;;;;;;;-145.45;100.00;62759.84;5304562;28;20484;-84
2022/05/25 10:05:13;;;;;;;8.32;1.50;;;;;;;-145.45;100.00;62759.84;5304471;28;20021;-83
2022/05/25 10:07:58;;;;;;;7.40;1.60;;;;;;;-145.45;100.00;62759.84;5304514;28;20036;-84
2022/05/25 10:10:33;;;;;;;5.60;1.23;;;;;;;-145.45;100.00;62759.84;5304369;28;20545;-84
2022/05/25 10:13:19;;;;;;;6.45;1.10;;;;;;;-145.45;100.00;62759.84;5302564;28;20028;-84
2022/05/25 10:15:51;;;;;;;7.15;1.42;;;;;;;-145.45;100.00;62759.84;5302382;28;20032;-84
2022/05/25 10:18:35;;;;;;;5.10;1.17;;;;;;;-145.45;100.00;62759.84;5304249;28;20083;-83
2022/05/25 10:21:13;;;;;;;3.35;0.98;;;;;;;-145.45;100.00;62759.84;5304231;28;20473;-84
2022/05/25 10:23:44;;;;;;;2.65;0.80;;;;;;;-145.45;100.00;62759.84;5287556;28;20111;-84
2022/05/25 10:26:26;;;;;;;6.82;0.95;;;;;;;-145.45;100.00;62759.84;5325549;28;20119;-84
2022/05/25 10:29:04;;;;;;;4.07;0.85;;;;;;;-145.45;100.00;62759.84;5324101;28;20101;-84
2022/05/25 10:37:39;;;;;;;3.30;0.85;;;;;;;-145.45;100.00;62759.84;5304224;28;20028;-84
2022/05/25 10:40:11;;;;;;;4.80;0.77;;;;;;;-145.45;100.00;62759.84;5303998;28;20032;-84
2022/05/25 10:42:45;;;;;;;3.00;1.05;;;;;;;-145.45;100.00;62759.84;5285538;28;20487;-84
2022/05/25 10:45:19;;;;;;;3.22;0.80;;;;;;;-145.45;100.00;62759.84;5291286;28;20024;-84
2022/05/25 10:47:54;;;;;;;2.13;0.75;;;;;;;-145.45;100.00;62759.84;5303636;28;20038;-83
2022/05/25 10:50:45;;;;;;;2.03;0.63;;;;;;;-145.45;100.00;62759.84;5324467;28;20431;-83
2022/05/25 10:53:31;;;;;;;4.13;0.80;;;;;;;-145.45;100.00;62759.84;5324581;28;20085;-84
2022/05/25 10:56:16;;;;;;;2.00;0.80;;;;;;;-145.45;100.00;62759.84;5324783;28;20468;-84
2022/05/25 10:59:09;;;;;;;2.72;0.70;;;;;;;-145.45;100.00;62759.84;5316788;28;20036;-84
2022/05/25 11:02:15;;;;;;;2.10;0.98;;;;;;;-145.45;100.00;62759.84;5318361;28;20025;-83
2022/05/25 11:05:14;;;;;;;4.57;0.80;;;;;;;-145.45;100.00;62759.84;5301510;28;20408;-83
2022/05/25 11:07:47;;;;;;;4.68;0.90;;;;;;;-145.45;100.00;62759.84;5303875;28;20123;-83
2022/05/25 11:10:24;;;;;;;3.92;0.85;;;;;;;-145.45;100.00;62759.84;5285290;28;20043;-83
2022/05/25 11:13:01;;;;;;;1.73;0.85;;;;;;;-145.45;100.00;62759.84;5295807;28;20427;-83
2022/05/25 11:15:59;;;;;;;3.50;0.73;;;;;;;-145.45;100.00;62759.84;5307319;28;20520;-83
2022/05/25 11:18:43;;;;;;;4.22;0.73;;;;;;;-145.45;100.00;62759.84;5305430;28;20107;-83
2022/05/25 11:21:33;;;;;;;2.95;1.00;;;;;;;-145.45;100.00;62759.84;5287800;28;20024;-83
2022/05/25 11:24:15;;;;;;;3.92;0.77;;;;;;;-145.45;100.00;62759.84;5303963;28;20033;-83
2022/05/25 11:27:04;;;;;;;1.45;0.60;;;;;;;-145.45;100.00;62759.84;5304229;28;20044;-83
2022/05/25 11:29:40;;;;;;;5.22;0.70;;;;;;;-145.45;100.00;62759.84;5314963;28;20572;-83
2022/05/25 11:32:40;;;;;;;6.45;0.90;;;;;;;-145.45;100.00;62759.84;5324010;28;20027;-83
2022/05/25 11:35:40;;;;;;;7.07;0.88;;;;;;;-145.45;100.00;62759.84;5271302;28;20165;-84
2022/05/25 11:38:19;;;;;;;3.17;0.70;;;;;;;-145.45;100.00;62759.84;5308716;28;20040;-83
2022/05/25 11:41:22;;;;;;;3.42;0.52;;;;;;;-145.45;100.00;62759.84;5329490;28;20027;-84
2022/05/25 11:44:17;;;;;;;1.63;0.73;;;;;;;-145.45;100.00;62759.84;5329729;27;20028;-82
2022/05/25 11:46:49;;;;;;;1.25;0.57;;;;;;;-145.45;100.00;62759.84;5328927;28;20024;-83
2022/05/25 11:49:39;;;;;;;4.63;0.73;;;;;;;-145.45;100.00;62759.84;5328512;28;20140;-83
2022/05/25 11:52:34;;;;;;;6.18;1.10;;;;;;;-145.45;100.00;62759.84;5329404;28;20099;-83
2022/05/25 11:55:20;;;;;;;1.80;0.90;;;;;;;-145.45;100.00;62759.84;5309649;28;20058;-83
2022/05/25 11:58:11;;;;;;;4.28;0.80;;;;;;;-145.45;100.00;62759.84;5309054;28;20061;-83
2022/05/25 12:00:53;;;;;;;3.00;1.00;;;;;;;-145.45;100.00;62759.84;5327634;28;20024;-83
2022/05/25 12:03:37;;;;;;;3.33;1.00;;;;;;;-145.45;100.00;62759.84;5288728;28;20509;-83
2022/05/25 12:06:30;;;;;;;3.03;1.25;;;;;;;-145.45;100.00;62759.84;5327095;28;20039;-83